Time;durP1;ratioP1;P1;durP2;ratioP2;P2;SDS_P1;SDS_P2;PMS_P1;PMS_P2;Temp;Humidity;BMP_temperature;BMP_pressure;BME280_temperature;BME280_humidity;BME280_pressure;Samples;Min_cycle;Max_cycle;Signal;HPM_P1;HPM_P2
2023/01/13 00:01:12;;;;;;;15.27;4.40;;;;;;;;;;5013666;28;20042;-67
2023/01/13 00:03:38;;;;;;;13.55;3.20;;;;;;;;;;5009439;28;20068;-67
2023/01/13 00:06:04;;;;;;;13.48;3.30;;;;;;;;;;5011026;28;20065;-67
2023/01/13 00:08:30;;;;;;;17.67;3.33;;;;;;;;;;5012431;28;20053;-67
2023/01/13 00:10:56;;;;;;;25.38;4.05;;;;;;;;;;5009639;28;20045;-67
2023/01/13 00:13:25;;;;;;;17.15;3.50;;;;;;;;;;5013580;28;20049;-66
2023/01/13 00:16:04;;;;;;;21.58;4.18;;;;;;;;;;5011736;28;20041;-66
2023/01/13 00:18:30;;;;;;;18.45;4.28;;;;;;;;;;5009987;28;20038;-66
2023/01/13 00:21:00;;;;;;;35.17;15.25;;;;;;;;;;5010562;28;20042;-66
2023/01/13 00:23:27;;;;;;;24.25;4.63;;;;;;;;;;5004896;28;20488;-66
2023/01/13 00:25:55;;;;;;;21.70;3.90;;;;;;;;;;5007871;28;20049;-66
2023/01/13 00:28:21;;;;;;;27.10;4.65;;;;;;;;;;5009294;28;20053;-66
2023/01/13 00:30:47;;;;;;;27.08;4.65;;;;;;;;;;5008218;28;20041;-66
2023/01/13 00:33:13;;;;;;;25.02;4.15;;;;;;;;;;5005866;28;20046;-66
2023/01/13 00:35:39;;;;;;;21.92;4.03;;;;;;;;;;5006075;28;20029;-66
2023/01/13 00:38:05;;;;;;;25.55;4.03;;;;;;;;;;5008211;28;20030;-66
2023/01/13 00:40:31;;;;;;;22.23;3.85;;;;;;;;;;5005837;28;20041;-67
2023/01/13 00:45:41;;;;;;;25.30;3.35;;;;;;;;;;5002084;28;20326;-66
2023/01/13 00:48:07;;;;;;;22.10;3.95;;;;;;;;;;5008883;28;20179;-66
2023/01/13 00:50:33;;;;;;;22.58;4.00;;;;;;;;;;5006317;28;20420;-66
2023/01/13 00:53:00;;;;;;;21.02;3.50;;;;;;;;;;5008024;28;20120;-67
2023/01/13 00:55:26;;;;;;;20.90;4.05;;;;;;;;;;5004563;28;20050;-66
2023/01/13 00:57:52;;;;;;;23.25;3.78;;;;;;;;;;5007452;28;20038;-66
2023/01/13 01:00:18;;;;;;;23.45;3.90;;;;;;;;;;5003081;28;20042;-66
2023/01/13 01:02:44;;;;;;;20.98;4.07;;;;;;;;;;5007769;28;20046;-66
2023/01/13 01:05:10;;;;;;;26.88;4.30;;;;;;;;;;5004443;28;20096;-66
2023/01/13 01:07:36;;;;;;;22.77;4.13;;;;;;;;;;5005902;28;20097;-66
2023/01/13 01:10:02;;;;;;;20.83;3.58;;;;;;;;;;5004032;28;20120;-66
2023/01/13 01:12:28;;;;;;;11.50;2.30;;;;;;;;;;5004626;28;20053;-67
2023/01/13 01:14:54;;;;;;;21.35;3.75;;;;;;;;;;5010482;28;20034;-66
2023/01/13 01:17:20;;;;;;;26.75;4.10;;;;;;;;;;5010979;28;20042;-66
2023/01/13 01:19:46;;;;;;;25.40;3.50;;;;;;;;;;5009828;28;20046;-67
2023/01/13 01:22:12;;;;;;;22.58;3.35;;;;;;;;;;5003045;28;20069;-66
2023/01/13 01:24:41;;;;;;;21.02;4.00;;;;;;;;;;5010948;28;20040;-66
2023/01/13 01:27:07;;;;;;;24.05;3.90;;;;;;;;;;5010894;28;20488;-66
2023/01/13 01:29:33;;;;;;;23.40;4.13;;;;;;;;;;5012293;28;20049;-67
2023/01/13 01:31:59;;;;;;;17.92;3.85;;;;;;;;;;5011290;28;20038;-66
2023/01/13 01:34:25;;;;;;;24.35;3.97;;;;;;;;;;5011348;28;20069;-67
2023/01/13 01:36:51;;;;;;;19.00;3.90;;;;;;;;;;5011018;28;20123;-67
2023/01/13 01:39:17;;;;;;;18.77;3.42;;;;;;;;;;5012851;28;20120;-66
2023/01/13 01:43:57;;;;;;;22.40;3.90;;;;;;;;;;5009720;28;20444;-67
2023/01/13 01:44:42;;;;;;;24.88;4.28;;;;;;;;;;5012448;28;20076;-67
2023/01/13 01:47:13;;;;;;;25.73;4.03;;;;;;;;;;5009090;28;20469;-65
2023/01/13 01:49:39;;;;;;;21.30;3.60;;;;;;;;;;5010970;28;20129;-66
2023/01/13 01:52:05;;;;;;;29.52;4.07;;;;;;;;;;5008394;28;20488;-66
2023/01/13 01:54:36;;;;;;;22.20;3.70;;;;;;;;;;5010814;28;20075;-67
2023/01/13 01:57:02;;;;;;;22.33;3.80;;;;;;;;;;5011437;28;20499;-66
2023/01/13 01:59:31;;;;;;;23.48;4.10;;;;;;;;;;5010445;28;20034;-66
2023/01/13 02:01:57;;;;;;;21.80;4.18;;;;;;;;;;4991375;28;20081;-66
2023/01/13 02:04:27;;;;;;;27.80;5.05;;;;;;;;;;5011094;28;20049;-66
2023/01/13 02:06:53;;;;;;;23.23;4.30;;;;;;;;;;5011989;28;20042;-66
2023/01/13 02:09:19;;;;;;;22.05;5.15;;;;;;;;;;5011349;28;20049;-66
2023/01/13 02:14:30;;;;;;;30.38;5.05;;;;;;;;;;5011078;28;20068;-66
2023/01/13 02:16:59;;;;;;;21.73;3.90;;;;;;;;;;5011927;28;20060;-66
2023/01/13 02:19:42;;;;;;;23.98;4.30;;;;;;;;;;5009696;28;20042;-67
2023/01/13 02:22:11;;;;;;;30.40;4.97;;;;;;;;;;5023618;22;20030;-62
2023/01/13 02:24:55;;;;;;;21.92;3.88;;;;;;;;;;5044204;28;20044;-62
2023/01/13 02:27:27;;;;;;;24.90;3.95;;;;;;;;;;5053219;28;20052;-62
2023/01/13 02:32:59;;;;;;;20.95;4.13;;;;;;;;;;5045317;28;20593;-61
2023/01/13 02:35:25;;;;;;;20.30;3.35;;;;;;;;;;5046146;28;20049;-62
2023/01/13 02:37:51;;;;;;;22.58;4.13;;;;;;;;;;5049040;28;20033;-62
2023/01/13 02:40:23;;;;;;;24.90;4.40;;;;;;;;;;5050024;28;20239;-62
2023/01/13 02:45:37;;;;;;;27.77;4.65;;;;;;;;;;5053701;28;19916;-61
2023/01/13 02:48:06;;;;;;;23.33;4.25;;;;;;;;;;5049864;28;20402;-61
2023/01/13 02:50:35;;;;;;;23.05;4.25;;;;;;;;;;5049673;28;20033;-62
2023/01/13 02:53:04;;;;;;;25.13;3.70;;;;;;;;;;5046384;28;20544;-62
2023/01/13 02:55:34;;;;;;;23.73;4.70;;;;;;;;;;5050030;28;20079;-62
2023/01/13 02:58:02;;;;;;;25.85;4.57;;;;;;;;;;5051215;28;20619;-62
2023/01/13 03:00:28;;;;;;;22.40;4.22;;;;;;;;;;5046338;28;20060;-62
2023/01/13 03:02:54;;;;;;;29.60;4.80;;;;;;;;;;5062223;28;20037;-62
2023/01/13 03:05:20;;;;;;;28.00;4.35;;;;;;;;;;5065262;28;20041;-62
2023/01/13 03:08:05;;;;;;;28.77;4.95;;;;;;;;;;5064104;28;20086;-62
2023/01/13 03:10:46;;;;;;;23.20;3.90;;;;;;;;;;5057935;28;20608;-62
2023/01/13 03:13:12;;;;;;;;;;;;;;;;;;5043177;28;20037;-62
2023/01/13 03:15:47;;;;;;;32.00;4.50;;;;;;;;;;5054481;28;20302;-62
2023/01/13 03:18:18;;;;;;;23.88;4.18;;;;;;;;;;5066015;28;20085;-62
2023/01/13 03:20:53;;;;;;;27.92;4.43;;;;;;;;;;5052550;28;20049;-62
2023/01/13 03:23:25;;;;;;;26.95;4.95;;;;;;;;;;5048451;28;20044;-62
2023/01/13 03:26:14;;;;;;;24.27;4.43;;;;;;;;;;5063770;28;20048;-61
2023/01/13 03:28:52;;;;;;;28.15;5.40;;;;;;;;;;5059895;28;20124;-61
2023/01/13 03:31:22;;;;;;;26.33;4.25;;;;;;;;;;5055740;28;20049;-61
2023/01/13 03:33:51;;;;;;;30.27;4.93;;;;;;;;;;5051754;28;20037;-61
2023/01/13 03:36:18;;;;;;;28.10;4.93;;;;;;;;;;5053523;28;20079;-61
2023/01/13 03:38:46;;;;;;;26.15;3.83;;;;;;;;;;5072130;28;20043;-61
2023/01/13 03:41:25;;;;;;;30.02;5.53;;;;;;;;;;5056852;28;20041;-61
2023/01/13 03:44:22;;;;;;;17.75;3.88;;;;;;;;;;5034291;28;20052;-61
2023/01/13 03:46:52;;;;;;;31.08;5.05;;;;;;;;;;5055399;28;20041;-61
2023/01/13 03:49:20;;;;;;;28.65;4.53;;;;;;;;;;5046605;28;20045;-62
2023/01/13 03:51:48;;;;;;;28.13;5.47;;;;;;;;;;5044896;28;20076;-62
2023/01/13 03:54:16;;;;;;;27.55;5.28;;;;;;;;;;5048880;28;20493;-61
2023/01/13 03:56:46;;;;;;;28.58;4.65;;;;;;;;;;5060791;28;20055;-62
2023/01/13 03:59:18;;;;;;;32.92;5.90;;;;;;;;;;5060836;28;20098;-62
2023/01/13 04:01:47;;;;;;;22.33;4.95;;;;;;;;;;5052041;28;20052;-62
2023/01/13 04:04:18;;;;;;;30.17;4.85;;;;;;;;;;5047863;28;20048;-62
2023/01/13 04:06:53;;;;;;;26.00;5.20;;;;;;;;;;5060649;28;20040;-62
2023/01/13 04:09:38;;;;;;;30.40;5.32;;;;;;;;;;5068231;28;20047;-62
2023/01/13 04:12:10;;;;;;;28.88;4.70;;;;;;;;;;5052172;28;20041;-62
2023/01/13 04:14:36;;;;;;;24.40;3.80;;;;;;;;;;5056179;28;20041;-62
2023/01/13 04:17:04;;;;;;;25.25;4.28;;;;;;;;;;5051571;28;20113;-62
2023/01/13 04:19:31;;;;;;;28.67;4.90;;;;;;;;;;5043784;28;20042;-62
2023/01/13 04:21:57;;;;;;;25.17;4.35;;;;;;;;;;5048758;28;20417;-62
2023/01/13 04:24:24;;;;;;;27.45;4.10;;;;;;;;;;5058210;28;20044;-62
2023/01/13 04:26:50;;;;;;;23.63;5.15;;;;;;;;;;5052351;28;20049;-61
2023/01/13 04:29:16;;;;;;;25.15;4.22;;;;;;;;;;5052479;28;20536;-62
2023/01/13 04:31:42;;;;;;;27.08;5.00;;;;;;;;;;5053339;28;20041;-62
2023/01/13 04:34:09;;;;;;;30.80;5.07;;;;;;;;;;5043605;28;20029;-62
2023/01/13 04:36:35;;;;;;;25.15;4.97;;;;;;;;;;5035872;28;20128;-62
2023/01/13 04:39:01;;;;;;;22.80;4.38;;;;;;;;;;5039786;28;20032;-61
2023/01/13 04:41:56;;;;;;;26.50;4.85;;;;;;;;;;5051881;28;20049;-61
2023/01/13 04:44:13;;;;;;;32.13;5.05;;;;;;;;;;5047643;28;20045;-62
2023/01/13 04:46:39;;;;;;;30.02;4.65;;;;;;;;;;5050773;28;20037;-62
2023/01/13 04:49:05;;;;;;;23.88;4.65;;;;;;;;;;5039461;28;20041;-62
2023/01/13 04:51:31;;;;;;;26.65;4.50;;;;;;;;;;5042746;28;20545;-62
2023/01/13 04:53:57;;;;;;;30.08;5.35;;;;;;;;;;5053534;28;20037;-62
2023/01/13 04:56:23;;;;;;;29.63;5.55;;;;;;;;;;5049870;28;20080;-61
2023/01/13 04:58:49;;;;;;;23.58;4.13;;;;;;;;;;5048773;28;20044;-61
2023/01/13 05:01:15;;;;;;;26.63;4.45;;;;;;;;;;5040071;28;20044;-61
2023/01/13 05:03:41;;;;;;;23.65;3.90;;;;;;;;;;5051621;28;20060;-61
2023/01/13 05:06:07;;;;;;;28.00;4.43;;;;;;;;;;5047379;28;20069;-62
2023/01/13 05:08:33;;;;;;;25.15;4.70;;;;;;;;;;5055497;28;20097;-62
2023/01/13 05:11:00;;;;;;;27.77;5.05;;;;;;;;;;5045287;28;20515;-61
2023/01/13 05:19:09;;;;;;;23.63;4.80;;;;;;;;;;5039053;28;20399;-61
2023/01/13 05:27:05;;;;;;;27.38;4.15;;;;;;;;;;5046342;28;20065;-61
2023/01/13 05:29:31;;;;;;;20.40;4.20;;;;;;;;;;5031528;28;20099;-61
2023/01/13 05:31:57;;;;;;;24.58;4.35;;;;;;;;;;5044102;28;20041;-62
2023/01/13 05:34:23;;;;;;;29.00;4.57;;;;;;;;;;5052238;28;20494;-62
2023/01/13 05:36:49;;;;;;;22.75;3.85;;;;;;;;;;5052542;28;20041;-62
2023/01/13 05:39:15;;;;;;;27.25;4.03;;;;;;;;;;5051948;28;20055;-62
2023/01/13 05:44:25;;;;;;;23.92;3.67;;;;;;;;;;5040784;28;20060;-62
2023/01/13 05:46:51;;;;;;;20.25;3.88;;;;;;;;;;5060994;28;20067;-62
2023/01/13 05:49:17;;;;;;;21.00;3.75;;;;;;;;;;5063083;28;20036;-62
2023/01/13 05:51:43;;;;;;;21.67;3.55;;;;;;;;;;5051523;28;20037;-61
2023/01/13 05:54:09;;;;;;;19.25;3.35;;;;;;;;;;5049536;28;20064;-61
2023/01/13 05:56:35;;;;;;;20.73;3.33;;;;;;;;;;5048370;28;20048;-61
2023/01/13 05:59:01;;;;;;;16.77;4.05;;;;;;;;;;5045683;28;20056;-61
2023/01/13 06:01:27;;;;;;;18.50;2.92;;;;;;;;;;5045838;28;20037;-61
2023/01/13 06:03:53;;;;;;;17.30;3.25;;;;;;;;;;5046382;28;20051;-62
2023/01/13 06:06:19;;;;;;;19.30;3.30;;;;;;;;;;5050563;28;20175;-61
2023/01/13 06:08:45;;;;;;;16.27;3.30;;;;;;;;;;5042301;28;20101;-62
2023/01/13 06:11:11;;;;;;;19.05;2.65;;;;;;;;;;5046379;28;20045;-62
2023/01/13 06:13:37;;;;;;;18.17;3.53;;;;;;;;;;5045910;28;20043;-62
2023/01/13 06:16:03;;;;;;;17.08;3.35;;;;;;;;;;5052270;28;20036;-62
2023/01/13 06:18:29;;;;;;;19.75;3.45;;;;;;;;;;5060318;28;20124;-62
2023/01/13 06:20:56;;;;;;;14.77;2.72;;;;;;;;;;5043828;28;20128;-62
2023/01/13 06:23:22;;;;;;;17.52;3.58;;;;;;;;;;5040383;28;20041;-62
2023/01/13 06:26:00;;;;;;;19.17;2.97;;;;;;;;;;5041466;28;20045;-62
2023/01/13 06:28:26;;;;;;;9.70;2.40;;;;;;;;;;5041720;28;20091;-62
2023/01/13 06:30:55;;;;;;;13.48;2.70;;;;;;;;;;5050875;28;20056;-61
2023/01/13 06:33:24;;;;;;;17.67;3.50;;;;;;;;;;5049989;28;20044;-62
2023/01/13 06:35:54;;;;;;;19.77;2.67;;;;;;;;;;5049783;28;20090;-62
2023/01/13 06:38:21;;;;;;;14.02;2.92;;;;;;;;;;5065673;28;20044;-61
2023/01/13 06:40:47;;;;;;;16.95;2.80;;;;;;;;;;5071324;28;20123;-61
2023/01/13 06:43:13;;;;;;;11.93;3.15;;;;;;;;;;5046756;28;20099;-61
2023/01/13 06:45:40;;;;;;;11.57;2.78;;;;;;;;;;5053693;28;20048;-61
2023/01/13 06:48:06;;;;;;;14.82;2.38;;;;;;;;;;5056959;28;20045;-61
2023/01/13 06:50:32;;;;;;;13.98;2.97;;;;;;;;;;5054000;28;20045;-61
2023/01/13 06:52:58;;;;;;;12.00;2.30;;;;;;;;;;5053476;28;20087;-61
2023/01/13 06:55:24;;;;;;;11.80;2.53;;;;;;;;;;5048356;28;20037;-62
2023/01/13 06:57:52;;;;;;;11.57;1.85;;;;;;;;;;5047051;28;20040;-62
2023/01/13 07:00:18;;;;;;;13.48;2.50;;;;;;;;;;5040713;28;20041;-62
2023/01/13 07:02:44;;;;;;;14.50;2.63;;;;;;;;;;5048774;28;20037;-61
2023/01/13 07:05:11;;;;;;;12.52;1.73;;;;;;;;;;5053717;28;20405;-62
2023/01/13 07:07:37;;;;;;;13.40;2.30;;;;;;;;;;5049114;28;20045;-62
2023/01/13 07:10:03;;;;;;;6.55;1.63;;;;;;;;;;5050830;28;20038;-62
2023/01/13 07:12:29;;;;;;;11.95;2.83;;;;;;;;;;5045932;28;20041;-62
2023/01/13 07:17:40;;;;;;;10.35;1.90;;;;;;;;;;5056280;28;20048;-62
2023/01/13 07:20:06;;;;;;;12.50;2.38;;;;;;;;;;5063666;28;20041;-61
2023/01/13 07:22:32;;;;;;;13.98;2.65;;;;;;;;;;5056142;28;20041;-62
2023/01/13 07:24:58;;;;;;;16.33;2.60;;;;;;;;;;5052034;28;20082;-62
2023/01/13 07:27:24;;;;;;;15.18;2.60;;;;;;;;;;5050331;28;20033;-62
2023/01/13 07:29:50;;;;;;;14.68;2.35;;;;;;;;;;5048641;28;20044;-61
2023/01/13 07:32:16;;;;;;;12.95;2.60;;;;;;;;;;5041949;28;20084;-61
2023/01/13 07:34:42;;;;;;;11.80;2.08;;;;;;;;;;5048395;28;20148;-61
2023/01/13 07:37:08;;;;;;;12.68;2.17;;;;;;;;;;5054306;28;20527;-62
2023/01/13 07:39:34;;;;;;;9.75;2.92;;;;;;;;;;5048103;28;20076;-62
2023/01/13 07:44:45;;;;;;;15.50;2.28;;;;;;;;;;5051367;28;20063;-61
2023/01/13 07:47:11;;;;;;;17.17;3.13;;;;;;;;;;5056035;28;20041;-61
2023/01/13 07:49:37;;;;;;;14.20;2.20;;;;;;;;;;5051901;28;20041;-61
2023/01/13 07:52:03;;;;;;;18.70;2.97;;;;;;;;;;5048816;28;20412;-61
2023/01/13 07:54:29;;;;;;;17.25;2.40;;;;;;;;;;5041698;28;20037;-61
2023/01/13 07:56:56;;;;;;;15.57;2.15;;;;;;;;;;5049312;28;20040;-61
2023/01/13 07:59:22;;;;;;;15.35;2.85;;;;;;;;;;5045650;28;20036;-61
2023/01/13 08:01:48;;;;;;;13.23;3.03;;;;;;;;;;5041206;28;20050;-60
2023/01/13 08:04:14;;;;;;;15.15;2.50;;;;;;;;;;5052950;28;20040;-61
2023/01/13 08:06:40;;;;;;;17.02;3.22;;;;;;;;;;5050807;28;20490;-61
2023/01/13 08:09:06;;;;;;;14.60;3.00;;;;;;;;;;5045246;28;20142;-62
2023/01/13 08:11:32;;;;;;;11.95;2.08;;;;;;;;;;5039980;28;20052;-61
2023/01/13 08:13:58;;;;;;;18.02;3.10;;;;;;;;;;5038992;28;20036;-61
2023/01/13 08:16:24;;;;;;;18.95;3.08;;;;;;;;;;5044162;28;20073;-61
2023/01/13 08:18:50;;;;;;;16.83;2.88;;;;;;;;;;5057637;28;20110;-62
2023/01/13 08:21:17;;;;;;;13.07;2.40;;;;;;;;;;5043888;28;20513;-62
2023/01/13 08:23:44;;;;;;;16.00;2.35;;;;;;;;;;5037241;22;20046;-62
2023/01/13 08:26:11;;;;;;;14.98;2.53;;;;;;;;;;5009193;28;20052;-64
2023/01/13 08:28:39;;;;;;;16.70;3.05;;;;;;;;;;5011738;28;20042;-63
2023/01/13 08:31:06;;;;;;;15.85;2.50;;;;;;;;;;5013113;28;20057;-64
2023/01/13 08:33:32;;;;;;;19.02;3.20;;;;;;;;;;5013372;28;20121;-63
2023/01/13 08:36:01;;;;;;;17.00;2.40;;;;;;;;;;5011768;28;20031;-63
2023/01/13 08:38:27;;;;;;;18.30;3.22;;;;;;;;;;5009527;28;20488;-63
2023/01/13 08:40:53;;;;;;;18.00;3.00;;;;;;;;;;5013817;28;20077;-63
2023/01/13 08:43:19;;;;;;;11.23;2.67;;;;;;;;;;5011906;28;20136;-65
2023/01/13 08:45:45;;;;;;;16.42;3.10;;;;;;;;;;5013132;28;20084;-64
2023/01/13 08:48:11;;;;;;;18.58;3.58;;;;;;;;;;5013395;28;20042;-64
2023/01/13 08:50:37;;;;;;;13.60;2.80;;;;;;;;;;5012923;28;20045;-63
2023/01/13 08:53:03;;;;;;;15.32;2.88;;;;;;;;;;5012719;28;20042;-64
2023/01/13 08:55:29;;;;;;;16.77;2.88;;;;;;;;;;5013515;28;20030;-64
2023/01/13 08:57:55;;;;;;;13.40;2.72;;;;;;;;;;5012797;28;20064;-65
2023/01/13 09:00:21;;;;;;;13.48;3.08;;;;;;;;;;5013134;28;20041;-65
2023/01/13 09:02:47;;;;;;;23.05;3.95;;;;;;;;;;5012305;28;20050;-65
2023/01/13 09:05:13;;;;;;;25.65;2.92;;;;;;;;;;5013578;28;20053;-64
2023/01/13 09:07:39;;;;;;;14.57;2.33;;;;;;;;;;5011772;28;20049;-65
2023/01/13 09:10:08;;;;;;;16.70;2.70;;;;;;;;;;5012907;28;20073;-65
2023/01/13 09:15:20;;;;;;;23.83;3.47;;;;;;;;;;5011991;28;20041;-65
2023/01/13 09:17:47;;;;;;;19.10;2.72;;;;;;;;;;5012794;28;20072;-65
2023/01/13 09:20:13;;;;;;;18.63;3.35;;;;;;;;;;5013312;28;20048;-65
2023/01/13 09:22:40;;;;;;;18.17;3.15;;;;;;;;;;5012704;28;20554;-65
2023/01/13 09:25:06;;;;;;;20.92;3.10;;;;;;;;;;5012223;28;20112;-65
2023/01/13 09:27:32;;;;;;;20.27;3.45;;;;;;;;;;5012872;28;20038;-65
2023/01/13 09:29:58;;;;;;;14.90;2.75;;;;;;;;;;5012278;28;20038;-65
2023/01/13 09:32:24;;;;;;;17.50;2.92;;;;;;;;;;5012383;28;20038;-65
2023/01/13 09:34:59;;;;;;;16.65;3.00;;;;;;;;;;5012622;28;20510;-65
2023/01/13 09:37:32;;;;;;;9.90;2.70;;;;;;;;;;5011811;28;20038;-65
2023/01/13 09:39:59;;;;;;;19.10;3.42;;;;;;;;;;5012581;28;20104;-65
2023/01/13 09:45:15;;;;;;;19.77;3.22;;;;;;;;;;5005666;28;20048;-65
2023/01/13 09:47:47;;;;;;;16.42;2.92;;;;;;;;;;5010250;28;20038;-65
2023/01/13 09:50:13;;;;;;;22.20;2.85;;;;;;;;;;5012670;28;20518;-65
2023/01/13 09:52:39;;;;;;;18.50;3.08;;;;;;;;;;5012151;28;20038;-65
2023/01/13 09:55:11;;;;;;;17.73;2.97;;;;;;;;;;5012849;28;20037;-65
2023/01/13 09:57:38;;;;;;;17.27;3.33;;;;;;;;;;5010212;28;20042;-65
2023/01/13 10:00:17;;;;;;;14.90;2.13;;;;;;;;;;5004432;28;20081;-65
2023/01/13 10:02:57;;;;;;;22.48;3.58;;;;;;;;;;5012045;28;20072;-65
2023/01/13 10:05:38;;;;;;;26.30;4.05;;;;;;;;;;5012323;28;20092;-65
2023/01/13 10:08:16;;;;;;;19.08;3.20;;;;;;;;;;5012272;28;20269;-65
2023/01/13 10:10:45;;;;;;;15.27;2.42;;;;;;;;;;5011556;28;20542;-65
2023/01/13 10:13:22;;;;;;;19.02;3.53;;;;;;;;;;5011397;28;20037;-65
2023/01/13 10:16:03;;;;;;;21.40;3.00;;;;;;;;;;5011137;28;20041;-65
2023/01/13 10:18:35;;;;;;;18.98;2.67;;;;;;;;;;5012149;28;20484;-65
2023/01/13 10:21:23;;;;;;;20.95;2.70;;;;;;;;;;5012136;28;20557;-65
2023/01/13 10:24:08;;;;;;;13.93;3.13;;;;;;;;;;5011363;28;20526;-65
2023/01/13 10:26:41;;;;;;;13.48;2.53;;;;;;;;;;5012179;28;20081;-65
2023/01/13 10:29:18;;;;;;;17.13;3.20;;;;;;;;;;5011128;28;20116;-65
2023/01/13 10:31:44;;;;;;;19.17;3.05;;;;;;;;;;5011538;28;20042;-64
2023/01/13 10:34:10;;;;;;;16.73;3.10;;;;;;;;;;5011687;28;20435;-64
2023/01/13 10:36:36;;;;;;;15.48;2.85;;;;;;;;;;5011731;28;20037;-65
2023/01/13 10:39:14;;;;;;;19.75;3.33;;;;;;;;;;5011736;28;20554;-65
2023/01/13 10:41:40;;;;;;;15.82;3.35;;;;;;;;;;5011413;28;20089;-65
2023/01/13 10:44:14;;;;;;;17.10;2.40;;;;;;;;;;5010669;28;20483;-65
2023/01/13 10:46:56;;;;;;;22.80;3.10;;;;;;;;;;5011631;28;20046;-64
2023/01/13 10:49:34;;;;;;;22.67;3.25;;;;;;;;;;5011892;28;20042;-64
2023/01/13 10:52:01;;;;;;;16.13;2.90;;;;;;;;;;5012070;28;20128;-65
2023/01/13 10:54:27;;;;;;;20.45;3.78;;;;;;;;;;5011415;28;20491;-65
2023/01/13 10:57:13;;;;;;;13.77;2.50;;;;;;;;;;5010313;28;20038;-65
2023/01/13 10:59:39;;;;;;;18.50;3.30;;;;;;;;;;5011215;28;20517;-64
2023/01/13 11:02:08;;;;;;;19.55;3.17;;;;;;;;;;5011631;28;20507;-65
2023/01/13 11:04:39;;;;;;;19.00;3.53;;;;;;;;;;5010080;28;20046;-65
2023/01/13 11:07:23;;;;;;;14.75;3.33;;;;;;;;;;5011010;28;20121;-65
2023/01/13 11:10:02;;;;;;;24.67;3.63;;;;;;;;;;5011659;28;20084;-65
2023/01/13 11:12:30;;;;;;;13.98;2.40;;;;;;;;;;5011063;28;20056;-65
2023/01/13 11:14:56;;;;;;;16.80;3.30;;;;;;;;;;5011259;28;20052;-64
2023/01/13 11:17:44;;;;;;;18.55;3.30;;;;;;;;;;5011542;28;20129;-65
2023/01/13 11:20:19;;;;;;;18.38;3.15;;;;;;;;;;5010974;28;20117;-65
2023/01/13 11:22:50;;;;;;;20.73;3.72;;;;;;;;;;5010557;28;20404;-65
2023/01/13 11:25:40;;;;;;;18.13;3.00;;;;;;;;;;5013868;28;20443;-65
2023/01/13 11:28:25;;;;;;;21.77;2.83;;;;;;;;;;5015493;28;20053;-65
2023/01/13 11:31:07;;;;;;;22.35;3.78;;;;;;;;;;5014746;28;20131;-65
2023/01/13 11:33:52;;;;;;;15.93;3.13;;;;;;;;;;5013419;28;20033;-65
2023/01/13 11:36:24;;;;;;;22.35;3.25;;;;;;;;;;5009142;28;20045;-65
2023/01/13 11:38:54;;;;;;;15.23;2.90;;;;;;;;;;5014257;28;20502;-65
2023/01/13 11:41:39;;;;;;;22.67;3.40;;;;;;;;;;5015142;28;20610;-65
2023/01/13 11:44:05;;;;;;;20.67;3.17;;;;;;;;;;5014835;28;20084;-65
2023/01/13 11:46:31;;;;;;;16.90;3.00;;;;;;;;;;5013744;28;20080;-64
2023/01/13 11:48:59;;;;;;;26.02;3.65;;;;;;;;;;5014842;28;20491;-64
2023/01/13 11:51:46;;;;;;;18.90;2.97;;;;;;;;;;5015213;28;20077;-65
2023/01/13 11:54:23;;;;;;;21.25;3.53;;;;;;;;;;5013768;28;20488;-65
2023/01/13 11:57:07;;;;;;;21.20;3.28;;;;;;;;;;5014728;28;20077;-65
2023/01/13 11:59:52;;;;;;;14.73;3.10;;;;;;;;;;5014247;28;20073;-65
2023/01/13 12:02:24;;;;;;;13.65;2.63;;;;;;;;;;5013496;28;20050;-65
2023/01/13 12:04:50;;;;;;;17.85;2.65;;;;;;;;;;5014217;28;20073;-65
2023/01/13 12:07:19;;;;;;;15.35;2.88;;;;;;;;;;5014507;28;20451;-65
2023/01/13 12:09:54;;;;;;;24.83;3.97;;;;;;;;;;5014192;28;20623;-66
2023/01/13 12:12:31;;;;;;;18.38;3.42;;;;;;;;;;5013507;28;20041;-65
2023/01/13 12:15:15;;;;;;;18.77;3.35;;;;;;;;;;5013072;28;20038;-65
2023/01/13 12:17:49;;;;;;;18.80;3.13;;;;;;;;;;5013849;28;20064;-65
2023/01/13 12:20:41;;;;;;;15.85;2.97;;;;;;;;;;5014112;28;20038;-65
2023/01/13 12:23:12;;;;;;;23.65;3.85;;;;;;;;;;5011214;28;20512;-65
2023/01/13 12:25:38;;;;;;;;;;;;;;;;;;5013461;28;20518;-65
2023/01/13 12:28:12;;;;;;;24.83;3.40;;;;;;;;;;5013553;28;19917;-65
2023/01/13 12:30:49;;;;;;;19.70;3.40;;;;;;;;;;5014101;28;20081;-65
2023/01/13 12:33:18;;;;;;;13.82;2.42;;;;;;;;;;5014048;28;20056;-65
2023/01/13 12:36:05;;;;;;;19.63;3.28;;;;;;;;;;5013531;28;20038;-65
2023/01/13 12:38:35;;;;;;;21.50;2.47;;;;;;;;;;5013686;28;20041;-65
2023/01/13 12:41:04;;;;;;;20.40;3.70;;;;;;;;;;5005214;28;20037;-65
2023/01/13 12:46:18;;;;;;;18.27;2.80;;;;;;;;;;5013962;28;20104;-65
2023/01/13 12:48:45;;;;;;;15.27;2.35;;;;;;;;;;5013766;28;20050;-65
2023/01/13 12:51:24;;;;;;;18.27;3.58;;;;;;;;;;5013292;28;20050;-65
2023/01/13 12:53:51;;;;;;;19.42;3.95;;;;;;;;;;5012451;28;20041;-65
2023/01/13 12:56:36;;;;;;;16.85;2.67;;;;;;;;;;5012916;28;20042;-65
2023/01/13 12:59:17;;;;;;;9.85;2.05;;;;;;;;;;5005360;28;20438;-65
2023/01/13 13:01:45;;;;;;;11.95;2.50;;;;;;;;;;5012843;28;20536;-65
2023/01/13 13:04:20;;;;;;;9.27;2.13;;;;;;;;;;5013065;28;20407;-65
2023/01/13 13:06:52;;;;;;;7.65;1.88;;;;;;;;;;5013671;28;20044;-65
2023/01/13 13:09:18;;;;;;;10.02;2.20;;;;;;;;;;5012657;28;20091;-64
2023/01/13 13:14:38;;;;;;;17.80;2.47;;;;;;;;;;5013046;28;20480;-64
2023/01/13 13:17:24;;;;;;;13.77;2.50;;;;;;;;;;5010779;28;20037;-64
2023/01/13 13:19:50;;;;;;;9.15;1.80;;;;;;;;;;5012347;28;20050;-64
2023/01/13 13:22:17;;;;;;;15.90;2.65;;;;;;;;;;5010596;28;20045;-65
2023/01/13 13:24:58;;;;;;;15.60;2.47;;;;;;;;;;5011746;28;20128;-64
2023/01/13 13:27:33;;;;;;;8.75;1.90;;;;;;;;;;5013142;28;20055;-65
2023/01/13 13:30:00;;;;;;;13.73;2.60;;;;;;;;;;5012312;28;20483;-64
2023/01/13 13:32:26;;;;;;;11.20;1.73;;;;;;;;;;5012826;28;20052;-65
2023/01/13 13:34:55;;;;;;;10.73;2.47;;;;;;;;;;5012131;28;20121;-65
2023/01/13 13:37:29;;;;;;;13.25;2.50;;;;;;;;;;5012740;28;20096;-64
2023/01/13 13:48:20;;;;;;;14.02;2.30;;;;;;;;;;5012847;28;20061;-65
2023/01/13 13:50:48;;;;;;;8.73;2.55;;;;;;;;;;5012155;28;20116;-64
2023/01/13 13:53:14;;;;;;;7.13;1.75;;;;;;;;;;5011382;28;20038;-64
2023/01/13 13:55:51;;;;;;;9.48;2.35;;;;;;;;;;5012000;28;20084;-64
2023/01/13 13:58:17;;;;;;;16.98;2.28;;;;;;;;;;5012499;28;20116;-64
2023/01/13 14:00:46;;;;;;;9.73;1.90;;;;;;;;;;5012174;28;20173;-64
2023/01/13 14:03:21;;;;;;;15.77;2.55;;;;;;;;;;5012235;28;20037;-64
2023/01/13 14:05:55;;;;;;;9.88;2.10;;;;;;;;;;5011733;28;20049;-64
2023/01/13 14:08:21;;;;;;;10.07;1.77;;;;;;;;;;5010871;28;20038;-64
2023/01/13 14:10:47;;;;;;;9.75;1.90;;;;;;;;;;5012036;28;20045;-64
2023/01/13 14:13:24;;;;;;;7.85;1.80;;;;;;;;;;5012278;28;20038;-64
2023/01/13 14:16:10;;;;;;;10.55;2.00;;;;;;;;;;5010964;28;20042;-65
2023/01/13 14:18:47;;;;;;;11.68;2.13;;;;;;;;;;5011942;28;20048;-64
2023/01/13 14:21:16;;;;;;;9.73;1.75;;;;;;;;;;5010935;28;20059;-64
2023/01/13 14:23:49;;;;;;;14.55;2.40;;;;;;;;;;5034537;22;20048;-66
2023/01/13 14:26:15;;;;;;;15.57;2.28;;;;;;;;;;5047383;28;20479;-67
2023/01/13 14:28:42;;;;;;;10.10;2.22;;;;;;;;;;5051621;28;20049;-67
2023/01/13 14:31:08;;;;;;;7.78;2.00;;;;;;;;;;5051151;28;20191;-67
2023/01/13 14:33:34;;;;;;;8.20;2.20;;;;;;;;;;5051398;28;20121;-67
2023/01/13 14:36:10;;;;;;;11.77;2.08;;;;;;;;;;5048620;28;20487;-67
2023/01/13 14:38:36;;;;;;;9.20;2.03;;;;;;;;;;5051492;28;20483;-68
2023/01/13 14:41:31;;;;;;;9.20;2.10;;;;;;;;;;5050754;28;20200;-68
2023/01/13 14:43:58;;;;;;;9.95;1.80;;;;;;;;;;5046493;28;20092;-67
2023/01/13 14:46:25;;;;;;;14.98;2.20;;;;;;;;;;5051343;28;20041;-67
2023/01/13 14:48:53;;;;;;;13.40;3.03;;;;;;;;;;5051291;28;20045;-68
2023/01/13 14:51:21;;;;;;;13.80;2.22;;;;;;;;;;5049945;28;20041;-67
2023/01/13 14:53:48;;;;;;;6.72;1.67;;;;;;;;;;5051090;28;20094;-67
2023/01/13 14:56:32;;;;;;;9.25;1.63;;;;;;;;;;5051745;28;20406;-68
2023/01/13 14:59:01;;;;;;;11.65;2.30;;;;;;;;;;5051318;28;20041;-69
2023/01/13 15:01:29;;;;;;;10.77;1.92;;;;;;;;;;5055332;28;20048;-68
2023/01/13 15:04:14;;;;;;;6.22;1.88;;;;;;;;;;5054870;28;20049;-68
2023/01/13 15:06:45;;;;;;;10.70;1.67;;;;;;;;;;5051720;28;20060;-68
2023/01/13 15:09:12;;;;;;;13.53;2.03;;;;;;;;;;5055572;28;20047;-68
2023/01/13 15:11:39;;;;;;;6.50;1.60;;;;;;;;;;5055224;28;20564;-68
2023/01/13 15:14:08;;;;;;;12.25;2.00;;;;;;;;;;5054243;28;20124;-68
2023/01/13 15:16:35;;;;;;;15.15;2.03;;;;;;;;;;5051129;28;20037;-68
2023/01/13 15:19:02;;;;;;;9.70;2.33;;;;;;;;;;5054986;28;20049;-67
2023/01/13 15:21:28;;;;;;;12.02;1.80;;;;;;;;;;5054098;28;20055;-68
2023/01/13 15:23:54;;;;;;;15.80;2.15;;;;;;;;;;5054393;28;20505;-68
2023/01/13 15:26:25;;;;;;;10.02;1.55;;;;;;;;;;5054539;28;20045;-68
2023/01/13 15:28:52;;;;;;;14.55;1.85;;;;;;;;;;5055154;28;20056;-68
2023/01/13 15:31:19;;;;;;;8.85;2.00;;;;;;;;;;5054131;28;20077;-68
2023/01/13 15:33:45;;;;;;;12.98;2.78;;;;;;;;;;5055068;28;20394;-67
2023/01/13 15:36:19;;;;;;;9.60;2.30;;;;;;;;;;5053733;28;20223;-68